Time;durP1;ratioP1;P1;durP2;ratioP2;P2;SDS_P1;SDS_P2;PMS_P1;PMS_P2;Temp;Humidity;BMP_temperature;BMP_pressure;BME280_temperature;BME280_humidity;BME280_pressure;Samples;Min_cycle;Max_cycle;Signal;HPM_P1;HPM_P2
2022/01/02 00:01:37;;;;;;;23.92;15.27;;;;;;;2.57;83.73;99479.44;5016737;28;20160;-57
2022/01/02 00:04:03;;;;;;;24.73;15.05;;;;;;;2.82;84.78;99507.34;5021140;28;20591;-58
2022/01/02 00:06:32;;;;;;;24.00;15.00;;;;;;;2.75;84.58;99506.81;5016314;28;20029;-59
2022/01/02 00:09:04;;;;;;;24.60;15.60;;;;;;;2.48;83.49;99439.63;5009512;28;20034;-59
2022/01/02 00:11:29;;;;;;;24.90;15.65;;;;;;;2.76;83.26;99484.53;5041296;28;20025;-59
2022/01/02 00:14:02;;;;;;;22.25;14.35;;;;;;;2.67;83.23;99466.09;5013880;28;20045;-59
2022/01/02 00:16:28;;;;;;;24.77;14.93;;;;;;;2.73;83.20;99456.44;5015581;28;20455;-59
2022/01/02 00:19:06;;;;;;;23.05;14.48;;;;;;;2.84;83.53;99467.81;4992773;28;20034;-59
2022/01/02 00:21:33;;;;;;;25.00;14.60;;;;;;;2.86;83.11;99463.44;4987322;28;20103;-59
2022/01/02 00:24:06;;;;;;;21.73;13.23;;;;;;;2.88;82.83;99483.94;5012779;28;20099;-58
2022/01/02 00:26:38;;;;;;;24.48;14.52;;;;;;;2.50;83.16;99424.97;5017715;28;20022;-59
2022/01/02 00:29:05;;;;;;;22.08;13.98;;;;;;;2.82;83.45;99471.41;5040539;28;20052;-58
2022/01/02 00:31:32;;;;;;;21.48;14.43;;;;;;;2.91;83.27;99467.56;4994211;28;20041;-59
2022/01/02 00:33:58;;;;;;;22.83;14.82;;;;;;;2.56;83.48;99432.41;5039718;28;20037;-58
2022/01/02 00:36:23;;;;;;;19.67;13.95;;;;;;;2.40;84.37;99450.25;5004729;28;20539;-58
2022/01/02 00:38:49;;;;;;;22.63;13.57;;;;;;;2.62;84.02;99454.38;5012335;28;20055;-59
2022/01/02 00:41:20;;;;;;;20.67;13.80;;;;;;;2.24;83.93;99405.69;5043655;28;20033;-59
2022/01/02 00:43:47;;;;;;;22.10;14.20;;;;;;;2.56;83.15;99452.13;5009589;28;20018;-58
2022/01/02 00:46:13;;;;;;;20.35;13.20;;;;;;;2.60;82.86;99453.63;5000451;28;20120;-58
2022/01/02 00:48:42;;;;;;;21.15;13.43;;;;;;;2.61;82.65;99460.41;5046402;28;20024;-59
2022/01/02 00:51:49;;;;;;;21.90;12.25;;;;;;;2.55;82.55;99473.53;5037863;28;20064;-59
2022/01/02 00:54:16;;;;;;;20.02;12.88;;;;;;;2.28;83.72;99482.47;5025311;28;20461;-60
2022/01/02 00:56:44;;;;;;;20.75;12.60;;;;;;;2.28;85.69;99490.19;5006082;28;20030;-60
2022/01/02 00:59:29;;;;;;;19.58;12.38;;;;;;;2.27;86.68;99485.09;5045754;28;20025;-59
2022/01/02 01:02:00;;;;;;;18.67;12.13;;;;;;;2.45;87.26;99475.72;5046670;28;20148;-59
2022/01/02 01:04:29;;;;;;;18.20;12.07;;;;;;;2.28;86.52;99422.59;5038526;28;20392;-59
2022/01/02 01:06:59;;;;;;;20.83;12.60;;;;;;;2.30;85.60;99418.25;4957222;28;20415;-61
2022/01/02 01:09:26;;;;;;;19.98;12.65;;;;;;;2.66;84.65;99468.72;5015864;28;20034;-59
2022/01/02 01:11:53;;;;;;;20.80;12.80;;;;;;;2.52;84.28;99445.44;5049853;28;20029;-59
2022/01/02 01:14:18;;;;;;;21.15;13.02;;;;;;;2.52;83.81;99463.41;5000571;28;20056;-60
2022/01/02 01:16:44;;;;;;;20.70;13.25;;;;;;;2.65;84.00;99482.47;5038010;28;20072;-59
2022/01/02 01:19:09;;;;;;;21.25;12.88;;;;;;;2.35;83.69;99472.72;5019036;28;20147;-60
2022/01/02 01:21:35;;;;;;;24.15;14.00;;;;;;;1.84;84.94;99422.94;5015262;28;20037;-59
2022/01/02 01:24:00;;;;;;;18.60;12.63;;;;;;;2.33;85.42;99477.13;4954840;28;20044;-60
2022/01/02 01:26:26;;;;;;;20.88;12.80;;;;;;;2.42;85.26;99479.25;5012584;28;20079;-60
2022/01/02 01:28:51;;;;;;;19.77;13.20;;;;;;;2.42;85.47;99474.13;4998538;28;20120;-59
2022/01/02 01:31:17;;;;;;;20.60;12.70;;;;;;;2.60;85.84;99480.13;5015805;28;20036;-59
2022/01/02 01:33:42;;;;;;;22.70;12.77;;;;;;;2.23;85.61;99417.69;5048914;28;20029;-60
2022/01/02 01:36:07;;;;;;;20.70;12.95;;;;;;;2.39;86.08;99471.72;5005043;28;20029;-60
2022/01/02 01:38:33;;;;;;;20.88;12.95;;;;;;;2.49;85.49;99490.06;5003793;28;20045;-59
2022/01/02 01:41:04;;;;;;;21.70;13.13;;;;;;;2.57;85.15;99489.69;5021168;28;20041;-60
2022/01/02 01:43:38;;;;;;;19.83;12.60;;;;;;;2.57;84.82;99490.53;5013985;28;20025;-60
2022/01/02 01:46:04;;;;;;;19.73;12.55;;;;;;;2.36;84.66;99448.75;5019978;28;20037;-59
2022/01/02 01:48:29;;;;;;;19.00;11.65;;;;;;;2.64;84.15;99496.22;5025961;28;20037;-60
2022/01/02 01:50:55;;;;;;;20.02;12.07;;;;;;;2.66;84.27;99509.81;5045192;28;20049;-60
2022/01/02 01:53:20;;;;;;;18.38;12.48;;;;;;;2.15;84.76;99452.31;5011119;28;20044;-60
2022/01/02 01:55:46;;;;;;;17.85;11.30;;;;;;;2.33;85.12;99507.91;4939316;28;20070;-60
2022/01/02 01:58:11;;;;;;;17.08;10.98;;;;;;;2.29;84.28;99488.44;5020514;28;20487;-60
2022/01/02 02:00:36;;;;;;;17.67;11.77;;;;;;;2.27;84.40;99505.63;5008195;28;20077;-60
2022/01/02 02:03:02;;;;;;;17.20;10.65;;;;;;;2.26;84.45;99506.53;5009558;28;20044;-59
2022/01/02 02:05:28;;;;;;;15.65;10.88;;;;;;;2.38;83.02;99508.53;5015028;28;20034;-60
2022/01/02 02:07:53;;;;;;;20.90;11.68;;;;;;;2.32;82.98;99503.69;5043270;28;20396;-60
2022/01/02 02:12:52;;;;;;;17.95;11.57;;;;;;;2.25;83.19;99510.84;5010030;28;20438;-59
2022/01/02 02:15:17;;;;;;;16.48;10.52;;;;;;;2.02;83.16;99460.56;5015628;28;20036;-60
2022/01/02 02:17:49;;;;;;;18.23;11.00;;;;;;;1.93;84.25;99448.16;5014092;28;20021;-60
2022/01/02 02:20:25;;;;;;;17.58;11.23;;;;;;;2.35;83.68;99500.16;5009539;28;20464;-59
2022/01/02 02:22:55;;;;;;;16.80;11.05;;;;;;;2.40;83.72;99501.59;5012796;28;20025;-60
2022/01/02 02:25:23;;;;;;;18.40;11.30;;;;;;;2.08;83.46;99456.88;4998330;28;20034;-57
2022/01/02 02:27:54;;;;;;;16.67;10.45;;;;;;;2.28;83.45;99481.63;4970057;28;20124;-60
2022/01/02 02:30:20;;;;;;;17.25;10.60;;;;;;;2.24;84.08;99482.66;5010307;28;20357;-60
2022/01/02 02:32:45;;;;;;;15.63;10.23;;;;;;;2.25;83.84;99486.91;5012295;28;20076;-59
2022/01/02 02:35:11;;;;;;;17.23;10.88;;;;;;;2.24;84.02;99478.38;5010459;28;20117;-60
2022/01/02 02:37:43;;;;;;;17.33;10.20;;;;;;;2.26;83.38;99478.31;4997264;28;20176;-59
2022/01/02 02:40:10;;;;;;;16.60;10.68;;;;;;;2.13;83.95;99480.59;5005760;28;20061;-60
2022/01/02 02:50:46;;;;;;;16.98;10.70;;;;;;;2.23;83.73;99470.75;5014232;28;20102;-59
2022/01/02 02:53:14;;;;;;;16.63;10.40;;;;;;;2.06;83.19;99472.38;5001359;28;20036;-60
2022/01/02 02:55:44;;;;;;;17.00;10.15;;;;;;;1.97;84.05;99465.09;5005103;28;20026;-60
2022/01/02 02:58:38;;;;;;;16.15;9.07;;;;;;;2.05;83.69;99465.56;5007841;28;20038;-60
2022/01/02 03:00:55;;;;;;;17.80;9.55;;;;;;;1.84;82.90;99425.50;5016876;28;20330;-60
2022/01/02 03:03:21;;;;;;;15.65;9.43;;;;;;;1.87;84.12;99463.81;5043337;28;20082;-59
2022/01/02 03:05:46;;;;;;;15.45;9.65;;;;;;;1.71;84.18;99477.31;5021295;28;20123;-59
2022/01/02 03:08:12;;;;;;;15.88;9.45;;;;;;;1.71;85.43;99468.81;5024257;28;20030;-60
2022/01/02 03:10:37;;;;;;;14.20;9.95;;;;;;;1.86;87.49;99462.16;5053714;28;20026;-60
2022/01/02 03:13:02;;;;;;;15.75;9.60;;;;;;;1.94;85.71;99477.22;5020041;28;20045;-60
2022/01/02 03:15:28;;;;;;;16.95;10.38;;;;;;;2.01;85.38;99476.00;5014965;28;21033;-60
2022/01/02 03:17:53;;;;;;;16.20;10.40;;;;;;;1.76;85.24;99463.47;5018791;28;20049;-60
2022/01/02 03:20:18;;;;;;;17.77;9.82;;;;;;;1.92;85.51;99451.63;5055560;28;20067;-59
2022/01/02 03:22:44;;;;;;;15.43;9.07;;;;;;;1.83;85.75;99447.75;5017171;28;20773;-60
2022/01/02 03:25:13;;;;;;;16.88;9.90;;;;;;;1.90;85.45;99450.88;5022323;28;20030;-59
2022/01/02 03:27:39;;;;;;;16.70;9.45;;;;;;;1.68;85.16;99436.44;5020843;28;20025;-60
2022/01/02 03:30:05;;;;;;;15.60;9.90;;;;;;;1.54;85.25;99431.91;4950092;28;20087;-60
2022/01/02 03:32:31;;;;;;;18.15;10.30;;;;;;;1.66;86.05;99439.97;5006196;28;20082;-59
2022/01/02 03:34:56;;;;;;;18.13;10.45;;;;;;;1.59;85.46;99403.53;5021356;28;20022;-60
2022/01/02 03:37:21;;;;;;;17.70;10.25;;;;;;;1.24;85.10;99387.97;5052937;28;20530;-60
2022/01/02 03:39:47;;;;;;;16.75;9.77;;;;;;;1.45;86.67;99393.88;5019010;28;20025;-60
2022/01/02 03:42:12;;;;;;;16.20;10.05;;;;;;;1.75;87.60;99425.91;5017398;28;20028;-60
2022/01/02 03:44:38;;;;;;;18.50;10.05;;;;;;;1.87;87.51;99428.75;5044799;28;20116;-60
2022/01/02 03:47:03;;;;;;;19.33;10.77;;;;;;;1.60;86.82;99379.53;5009700;28;20044;-60
2022/01/02 03:49:29;;;;;;;15.98;9.80;;;;;;;2.02;86.49;99439.22;5050431;28;20618;-61
2022/01/02 03:51:56;;;;;;;17.65;10.02;;;;;;;2.01;85.86;99448.66;5021255;28;20031;-59
2022/01/02 03:54:21;;;;;;;16.75;10.23;;;;;;;1.98;85.01;99453.91;5019677;28;20316;-60
2022/01/02 03:56:50;;;;;;;16.88;9.10;;;;;;;2.08;84.67;99456.88;5022267;28;20033;-60
2022/01/02 03:59:15;;;;;;;16.40;9.95;;;;;;;2.00;85.17;99458.97;5019059;28;20103;-60
2022/01/02 04:01:41;;;;;;;16.15;10.57;;;;;;;1.89;85.07;99450.03;4963381;28;20383;-59
2022/01/02 04:04:06;;;;;;;17.48;10.50;;;;;;;2.01;85.55;99461.47;5019603;28;20034;-60
2022/01/02 04:06:31;;;;;;;16.70;9.40;;;;;;;1.98;84.97;99453.91;5018367;28;20036;-60
2022/01/02 04:08:57;;;;;;;16.48;10.20;;;;;;;1.96;85.14;99465.16;5019758;28;20029;-59
2022/01/02 04:11:22;;;;;;;16.30;10.20;;;;;;;1.95;85.06;99468.59;5019242;28;20025;-59
2022/01/02 04:13:47;;;;;;;16.60;10.05;;;;;;;1.84;85.13;99457.09;5012145;28;20033;-59
2022/01/02 04:16:13;;;;;;;18.30;9.82;;;;;;;1.62;86.23;99459.78;5003556;28;20286;-59
2022/01/02 04:18:38;;;;;;;15.65;9.30;;;;;;;1.52;84.99;99407.25;4969205;28;20029;-60
2022/01/02 04:21:03;;;;;;;15.07;9.38;;;;;;;1.89;84.33;99454.34;5018080;28;20036;-60
2022/01/02 04:23:29;;;;;;;16.50;10.00;;;;;;;1.88;84.41;99453.50;5018038;28;20388;-60
2022/01/02 04:25:54;;;;;;;14.90;8.98;;;;;;;1.85;85.34;99442.56;5020722;28;20025;-60
2022/01/02 04:28:20;;;;;;;16.20;9.60;;;;;;;1.60;85.53;99402.63;5017115;28;20034;-59
2022/01/02 04:30:45;;;;;;;15.73;9.93;;;;;;;1.62;85.46;99443.56;5016538;28;20053;-60
2022/01/02 04:33:10;;;;;;;17.38;10.20;;;;;;;1.68;86.18;99449.28;5003913;28;20439;-59
2022/01/02 04:35:36;;;;;;;16.50;10.32;;;;;;;1.81;85.59;99441.03;4911057;28;20036;-60
2022/01/02 04:38:01;;;;;;;14.15;9.13;;;;;;;1.78;85.84;99438.59;5038801;28;20029;-59
2022/01/02 04:40:27;;;;;;;14.98;9.23;;;;;;;1.64;85.76;99432.38;5031309;28;20037;-60
2022/01/02 04:42:52;;;;;;;13.88;9.23;;;;;;;1.56;86.05;99438.72;5021258;28;20030;-59
2022/01/02 04:45:17;;;;;;;18.27;9.43;;;;;;;1.63;85.24;99432.44;5018222;28;20535;-59
2022/01/02 04:47:43;;;;;;;14.90;9.18;;;;;;;1.59;85.22;99429.16;5017726;28;20029;-60
2022/01/02 04:50:08;;;;;;;13.57;8.52;;;;;;;1.76;84.84;99435.28;4932761;28;21492;-59
2022/01/02 04:52:34;;;;;;;14.95;9.35;;;;;;;1.37;85.25;99403.66;5014989;28;20045;-59
2022/01/02 04:54:59;;;;;;;14.63;9.27;;;;;;;1.46;84.78;99422.91;5016761;28;20044;-60
2022/01/02 04:57:25;;;;;;;19.15;9.75;;;;;;;1.61;84.95;99439.34;5048582;28;20365;-60
2022/01/02 04:59:50;;;;;;;15.88;9.70;;;;;;;1.45;85.29;99444.31;5016637;28;20287;-60
2022/01/02 05:02:16;;;;;;;13.38;8.88;;;;;;;1.45;85.57;99434.06;5016014;28;20029;-59
2022/01/02 05:04:41;;;;;;;15.27;9.60;;;;;;;1.22;85.38;99394.06;5017224;28;20041;-59
2022/01/02 05:07:07;;;;;;;16.15;8.88;;;;;;;1.60;84.72;99440.25;5005811;28;20030;-60
2022/01/02 05:09:33;;;;;;;15.98;8.48;;;;;;;1.26;85.25;99439.13;5016608;28;20602;-60
2022/01/02 05:11:58;;;;;;;15.82;9.80;;;;;;;1.17;85.79;99419.88;5020939;28;20029;-60
2022/01/02 05:14:24;;;;;;;14.55;8.93;;;;;;;1.50;85.83;99435.53;5016967;28;20029;-60
2022/01/02 05:16:49;;;;;;;15.90;9.10;;;;;;;1.52;85.74;99426.03;5017474;28;20372;-59
2022/01/02 05:19:15;;;;;;;12.88;8.65;;;;;;;1.50;84.94;99419.31;5018005;28;20472;-60
2022/01/02 05:21:40;;;;;;;15.30;9.05;;;;;;;1.62;84.89;99421.31;4958496;28;20036;-59
2022/01/02 05:24:06;;;;;;;14.68;9.18;;;;;;;1.67;85.19;99424.50;5019520;28;20056;-59
2022/01/02 05:26:31;;;;;;;17.52;10.05;;;;;;;1.57;85.51;99423.28;5017438;28;20030;-59
2022/01/02 05:28:56;;;;;;;14.07;9.10;;;;;;;0.89;85.98;99339.09;5056273;28;20025;-60
2022/01/02 05:31:22;;;;;;;16.13;9.57;;;;;;;1.36;87.18;99417.34;5016746;28;20653;-59
2022/01/02 05:33:47;;;;;;;14.68;8.73;;;;;;;1.56;87.40;99424.16;5019727;28;20112;-59
2022/01/02 05:36:13;;;;;;;15.20;9.25;;;;;;;1.39;87.61;99426.63;5022182;28;20167;-59
2022/01/02 05:38:38;;;;;;;16.30;9.52;;;;;;;1.24;86.84;99387.97;5010061;28;20033;-60
2022/01/02 05:41:03;;;;;;;16.42;9.98;;;;;;;1.58;86.35;99439.47;5018876;28;20033;-60
2022/01/02 05:43:29;;;;;;;13.68;9.05;;;;;;;1.37;86.63;99438.69;5019889;28;20037;-60
2022/01/02 05:45:55;;;;;;;17.08;9.35;;;;;;;1.38;86.49;99430.94;5020038;28;20099;-59
2022/01/02 05:48:22;;;;;;;14.43;9.50;;;;;;;1.21;86.41;99382.16;5019347;28;20091;-59
2022/01/02 05:50:47;;;;;;;13.75;8.27;;;;;;;1.59;85.36;99421.47;5018084;28;20034;-59
2022/01/02 05:53:13;;;;;;;14.38;8.85;;;;;;;1.56;85.40;99421.59;5007613;28;20069;-60
2022/01/02 05:55:38;;;;;;;14.27;9.35;;;;;;;1.55;85.49;99419.94;5017487;28;20419;-59
2022/01/02 05:58:04;;;;;;;16.92;9.23;;;;;;;1.40;85.47;99408.63;5003056;28;20049;-60
2022/01/02 06:00:29;;;;;;;14.25;8.77;;;;;;;1.39;85.72;99416.38;5014354;28;20496;-59
2022/01/02 06:02:54;;;;;;;15.32;9.57;;;;;;;1.20;85.67;99417.16;5018672;28;20135;-60
2022/01/02 06:05:20;;;;;;;15.52;9.70;;;;;;;1.37;86.05;99423.31;5018255;28;20040;-60
2022/01/02 06:07:45;;;;;;;16.95;8.80;;;;;;;1.37;85.88;99416.47;5012885;28;20022;-59
2022/01/02 06:10:11;;;;;;;14.40;8.88;;;;;;;1.39;86.47;99432.59;5013957;28;20039;-60
2022/01/02 06:12:36;;;;;;;15.13;9.10;;;;;;;1.28;86.99;99422.81;5017181;28;20038;-60
2022/01/02 06:15:02;;;;;;;14.43;8.77;;;;;;;0.75;87.55;99355.06;5027533;28;20048;-60
2022/01/02 06:17:27;;;;;;;14.50;8.80;;;;;;;1.21;87.70;99413.72;5016478;28;20136;-60
2022/01/02 06:19:53;;;;;;;16.25;9.00;;;;;;;1.22;87.01;99423.06;5035015;28;20056;-60
2022/01/02 06:22:18;;;;;;;15.65;8.77;;;;;;;1.05;86.69;99370.00;5020658;28;20026;-60
2022/01/02 06:24:43;;;;;;;14.52;8.93;;;;;;;1.24;86.46;99423.84;4953143;28;20033;-60
2022/01/02 06:27:09;;;;;;;15.10;8.75;;;;;;;1.05;85.78;99385.38;5016629;28;20096;-60
2022/01/02 06:29:35;;;;;;;13.20;8.40;;;;;;;1.22;85.78;99425.63;5011964;28;21486;-59
2022/01/02 06:32:00;;;;;;;14.57;8.98;;;;;;;1.03;85.59;99392.28;5017732;28;20060;-58
2022/01/02 06:34:26;;;;;;;14.50;8.85;;;;;;;1.28;85.35;99435.63;5016234;28;20056;-61
2022/01/02 06:36:51;;;;;;;16.20;8.82;;;;;;;1.21;85.76;99418.03;5019234;28;20490;-60
2022/01/02 06:39:17;;;;;;;12.65;8.38;;;;;;;1.25;85.43;99425.50;5013380;28;20489;-61
2022/01/02 06:41:42;;;;;;;16.15;9.15;;;;;;;0.93;86.13;99378.19;5016856;28;20041;-61
2022/01/02 06:44:07;;;;;;;15.77;9.00;;;;;;;0.90;85.95;99374.03;5024081;28;20649;-61
2022/01/02 06:46:33;;;;;;;17.92;8.93;;;;;;;1.19;86.18;99420.66;5021236;28;20033;-61
2022/01/02 06:48:58;;;;;;;14.23;8.60;;;;;;;0.76;86.45;99366.13;5023699;28;20785;-61
2022/01/02 06:51:23;;;;;;;14.00;8.73;;;;;;;0.87;85.77;99353.69;5021847;28;20061;-60
2022/01/02 06:53:49;;;;;;;13.13;8.70;;;;;;;0.99;86.12;99377.94;5023545;28;20038;-60
2022/01/02 06:56:14;;;;;;;13.38;8.70;;;;;;;1.18;86.32;99408.72;4961264;28;20063;-60
2022/01/02 06:58:40;;;;;;;16.35;8.80;;;;;;;0.95;85.80;99376.44;5019392;28;20037;-60
2022/01/02 07:01:06;;;;;;;13.73;8.80;;;;;;;1.30;86.01;99421.00;5018986;28;20678;-61
2022/01/02 07:03:33;;;;;;;14.20;9.30;;;;;;;1.28;86.52;99430.50;5016968;28;20067;-61
2022/01/02 07:06:00;;;;;;;14.65;9.00;;;;;;;1.12;87.04;99430.31;5018360;28;21012;-60
2022/01/02 07:08:27;;;;;;;13.82;7.97;;;;;;;1.26;85.99;99434.88;5021018;28;20052;-61
2022/01/02 07:10:54;;;;;;;12.75;8.35;;;;;;;1.17;85.75;99427.56;5019009;28;20045;-61
2022/01/02 07:13:19;;;;;;;13.85;8.05;;;;;;;1.26;85.03;99440.00;4957999;28;20053;-60
2022/01/02 07:15:45;;;;;;;14.38;8.55;;;;;;;0.89;85.19;99390.28;5051206;28;20140;-61
2022/01/02 07:18:10;;;;;;;13.85;8.95;;;;;;;1.13;85.82;99449.94;5019697;28;20121;-61
2022/01/02 07:20:35;;;;;;;14.18;8.32;;;;;;;0.81;86.62;99419.69;5018177;28;20034;-60
2022/01/02 07:23:01;;;;;;;16.60;8.57;;;;;;;0.98;87.32;99458.22;5014116;28;20029;-61
2022/01/02 07:25:27;;;;;;;15.13;8.77;;;;;;;0.75;86.51;99426.72;5017836;28;20652;-60
2022/01/02 07:27:52;;;;;;;15.77;9.13;;;;;;;0.60;87.06;99458.06;5013760;28;20128;-60
2022/01/02 07:30:18;;;;;;;15.50;9.32;;;;;;;0.48;88.02;99440.66;5024635;28;20034;-61
2022/01/02 07:32:43;;;;;;;15.90;9.32;;;;;;;0.62;88.58;99450.31;5017649;28;20495;-60
2022/01/02 07:35:09;;;;;;;17.02;9.82;;;;;;;0.79;87.93;99439.41;5025142;28;20025;-61
2022/01/02 07:37:34;;;;;;;15.57;9.07;;;;;;;0.57;88.34;99374.56;5012983;28;20467;-60
2022/01/02 07:40:00;;;;;;;18.52;9.82;;;;;;;0.85;88.47;99428.91;5018042;28;20037;-61
2022/01/02 07:42:25;;;;;;;15.32;9.73;;;;;;;0.91;87.92;99418.41;5009919;28;20414;-61
2022/01/02 07:44:51;;;;;;;14.40;9.30;;;;;;;0.92;87.39;99397.84;5012303;28;20040;-61
2022/01/02 07:47:17;;;;;;;17.42;10.13;;;;;;;1.05;86.54;99400.72;5013316;28;20038;-61
2022/01/02 07:49:42;;;;;;;17.75;11.07;;;;;;;1.01;87.14;99406.06;5012723;28;20032;-60
2022/01/02 07:52:07;;;;;;;15.60;10.52;;;;;;;0.91;87.93;99378.28;5015746;28;20056;-60
2022/01/02 07:54:33;;;;;;;15.40;10.02;;;;;;;1.14;87.85;99430.25;5017624;28;20060;-60
2022/01/02 07:56:58;;;;;;;16.35;10.60;;;;;;;0.89;87.93;99382.63;5045016;28;20108;-59
2022/01/02 07:59:24;;;;;;;15.02;9.48;;;;;;;1.30;87.40;99438.94;5045177;28;20029;-59
2022/01/02 08:01:49;;;;;;;14.02;9.60;;;;;;;1.32;87.24;99446.56;4961540;28;20739;-60
2022/01/02 08:04:14;;;;;;;14.43;8.98;;;;;;;1.32;87.29;99439.72;4997022;28;20078;-59
2022/01/02 08:06:41;;;;;;;13.35;8.43;;;;;;;1.13;87.86;99446.50;5015026;28;20050;-60
2022/01/02 08:09:06;;;;;;;14.38;8.82;;;;;;;1.06;88.08;99448.50;5020716;28;20037;-60
2022/01/02 08:11:32;;;;;;;14.27;8.43;;;;;;;0.93;87.96;99452.47;5013568;28;20095;-60
2022/01/02 08:13:57;;;;;;;13.15;8.05;;;;;;;1.13;87.82;99443.94;5009819;28;20819;-60
2022/01/02 08:16:22;;;;;;;13.43;8.40;;;;;;;1.20;87.67;99431.72;5017510;28;20076;-60
2022/01/02 08:18:48;;;;;;;15.38;8.30;;;;;;;1.16;87.16;99431.00;5008058;28;20030;-59
2022/01/02 08:21:13;;;;;;;17.73;8.95;;;;;;;1.28;87.64;99419.44;5032572;28;20585;-59
2022/01/02 08:23:40;;;;;;;14.88;8.85;;;;;;;1.29;87.70;99392.88;5020475;28;20071;-59
2022/01/02 08:26:05;;;;;;;14.40;8.68;;;;;;;1.43;88.24;99423.88;5020470;28;20026;-59
2022/01/02 08:28:30;;;;;;;16.13;9.88;;;;;;;1.48;87.47;99411.69;5019619;28;20439;-59
2022/01/02 08:30:56;;;;;;;14.63;9.20;;;;;;;1.28;87.28;99357.94;5014635;28;20022;-60
2022/01/02 08:33:21;;;;;;;17.63;9.93;;;;;;;1.62;86.92;99403.38;5024538;28;20026;-59
2022/01/02 08:35:48;;;;;;;16.38;10.40;;;;;;;1.32;87.23;99377.41;5045095;28;20041;-60
2022/01/02 08:38:15;;;;;;;16.77;9.77;;;;;;;1.57;87.85;99430.13;5017814;28;20030;-60
2022/01/02 08:40:40;;;;;;;18.20;10.00;;;;;;;1.45;88.10;99421.25;5015295;28;20083;-59
2022/01/02 08:43:06;;;;;;;15.73;9.90;;;;;;;1.58;88.09;99426.66;5013025;28;20849;-60
2022/01/02 08:45:33;;;;;;;17.95;10.82;;;;;;;1.60;88.21;99427.44;5030211;28;20029;-60
2022/01/02 08:47:59;;;;;;;19.60;12.15;;;;;;;1.59;87.87;99412.94;5001730;28;20518;-59
2022/01/02 08:50:25;;;;;;;20.38;13.57;;;;;;;1.76;87.57;99420.72;5009441;28;20037;-60
2022/01/02 08:52:50;;;;;;;19.80;13.00;;;;;;;1.75;87.33;99431.03;5042829;28;20729;-60
2022/01/02 08:55:15;;;;;;;19.77;13.52;;;;;;;1.81;87.87;99435.91;5013594;28;20491;-60
2022/01/02 08:57:41;;;;;;;21.42;14.23;;;;;;;1.82;88.66;99430.69;5017157;28;20484;-60
2022/01/02 09:00:08;;;;;;;22.20;14.82;;;;;;;1.90;88.83;99412.41;5016710;28;20059;-59
2022/01/02 09:02:33;;;;;;;23.80;15.18;;;;;;;2.03;88.79;99420.38;5013255;28;20090;-60
2022/01/02 09:04:59;;;;;;;22.70;16.30;;;;;;;2.08;90.35;99403.84;5014844;28;20029;-60
2022/01/02 09:07:24;;;;;;;22.85;13.55;;;;;;;2.19;91.57;99402.50;4997080;28;20731;-58
2022/01/02 09:09:49;;;;;;;19.05;13.50;;;;;;;2.24;92.45;99408.25;5018372;28;20087;-60
2022/01/02 09:12:15;;;;;;;19.88;13.52;;;;;;;2.10;92.38;99355.88;5015973;28;20045;-59
2022/01/02 09:14:41;;;;;;;22.30;14.73;;;;;;;2.38;93.02;99397.34;5016042;28;20043;-59
2022/01/02 09:17:07;;;;;;;21.88;15.23;;;;;;;2.22;92.51;99356.19;5017895;28;20033;-59
2022/01/02 09:19:32;;;;;;;24.05;16.35;;;;;;;2.60;92.07;99402.28;5051680;28;20052;-59
2022/01/02 09:21:58;;;;;;;24.10;16.83;;;;;;;2.77;91.95;99409.13;5015754;28;20189;-59
2022/01/02 09:24:23;;;;;;;25.00;16.67;;;;;;;2.69;91.77;99376.13;5012486;28;20476;-59
2022/01/02 09:26:49;;;;;;;22.25;16.00;;;;;;;2.96;91.91;99409.06;5017101;28;21293;-59
2022/01/02 09:29:14;;;;;;;23.58;15.95;;;;;;;2.64;91.88;99357.56;5013305;28;20104;-59
2022/01/02 09:31:40;;;;;;;21.27;14.85;;;;;;;2.96;92.51;99409.88;5020266;28;20120;-59
2022/01/02 09:34:06;;;;;;;21.95;15.32;;;;;;;3.07;92.83;99399.06;5018310;28;20033;-59
2022/01/02 09:36:31;;;;;;;18.80;14.02;;;;;;;3.20;92.28;99396.72;5002840;28;20068;-57
2022/01/02 09:38:57;;;;;;;21.73;14.60;;;;;;;3.19;92.79;99377.03;5053038;28;20104;-58
2022/01/02 09:41:23;;;;;;;21.55;14.70;;;;;;;3.17;92.30;99371.16;5019624;28;20061;-58
2022/01/02 09:43:49;;;;;;;19.88;14.05;;;;;;;3.38;92.29;99390.63;5030954;28;20721;-59
2022/01/02 09:46:20;;;;;;;19.48;13.73;;;;;;;3.43;92.74;99388.63;4997012;28;20032;-58
2022/01/02 09:48:47;;;;;;;18.85;13.65;;;;;;;3.51;92.58;99387.41;5004515;28;20550;-59
2022/01/02 09:51:12;;;;;;;19.88;13.25;;;;;;;3.33;92.20;99336.03;5040740;28;20104;-58
2022/01/02 09:53:38;;;;;;;20.30;13.52;;;;;;;3.62;91.80;99375.63;5026657;28;20118;-59
2022/01/02 09:56:05;;;;;;;17.50;13.13;;;;;;;3.84;90.82;99374.47;5019243;28;20029;-57
2022/01/02 09:58:33;;;;;;;20.17;13.63;;;;;;;3.81;91.03;99396.03;5017327;28;20033;-59
2022/01/02 10:00:58;;;;;;;21.23;14.60;;;;;;;3.84;91.37;99390.72;5043711;28;20151;-58
2022/01/02 10:03:24;;;;;;;19.00;13.65;;;;;;;3.96;91.22;99390.97;5037136;28;21022;-59
2022/01/02 10:05:59;;;;;;;19.88;14.18;;;;;;;3.94;91.98;99388.50;5017172;28;20109;-59
2022/01/02 10:08:31;;;;;;;21.05;13.88;;;;;;;3.93;92.11;99378.28;5013739;28;20037;-59
2022/01/02 10:11:07;;;;;;;17.33;13.40;;;;;;;4.06;92.38;99383.59;5044850;28;20825;-59
2022/01/02 10:13:53;;;;;;;17.75;12.05;;;;;;;4.14;91.94;99378.84;5044894;28;20045;-59
2022/01/02 10:16:37;;;;;;;21.27;13.60;;;;;;;4.17;91.83;99379.50;5011520;28;20021;-58
2022/01/02 10:19:31;;;;;;;19.52;13.85;;;;;;;4.21;92.28;99365.53;5036240;28;20029;-58
2022/01/02 10:21:58;;;;;;;17.73;12.90;;;;;;;4.22;92.52;99356.09;5019581;28;20029;-59
2022/01/02 10:24:28;;;;;;;18.90;13.50;;;;;;;4.23;92.15;99350.88;5008007;28;20079;-59
2022/01/02 10:27:09;;;;;;;18.38;13.60;;;;;;;4.42;90.67;99334.38;5020428;28;20040;-58
2022/01/02 10:29:57;;;;;;;18.85;13.13;;;;;;;4.52;91.14;99327.75;5020635;28;20041;-59
2022/01/02 10:32:41;;;;;;;19.58;13.52;;;;;;;4.53;90.65;99332.00;5049581;28;20016;-60
2022/01/02 10:35:16;;;;;;;20.73;14.27;;;;;;;4.50;91.36;99331.34;5023744;28;20515;-61
2022/01/02 10:37:49;;;;;;;19.98;13.90;;;;;;;4.50;91.19;99328.78;5014954;28;20550;-60
2022/01/02 10:40:35;;;;;;;18.55;13.57;;;;;;;4.28;90.05;99281.06;5005880;28;20457;-59
2022/01/02 10:43:03;;;;;;;18.88;13.73;;;;;;;4.51;90.11;99312.38;5029049;28;20129;-60
2022/01/02 10:45:44;;;;;;;18.98;13.55;;;;;;;4.59;89.96;99329.06;4995433;28;20049;-60
2022/01/02 10:48:14;;;;;;;18.75;13.98;;;;;;;4.51;89.55;99312.38;5032681;28;20068;-61
2022/01/02 10:50:58;;;;;;;18.13;13.13;;;;;;;4.52;88.38;99288.28;5011285;28;20034;-60
2022/01/02 10:53:24;;;;;;;18.38;12.68;;;;;;;4.67;89.60;99310.56;5050001;28;20028;-61
2022/01/02 10:55:50;;;;;;;17.63;12.82;;;;;;;4.69;89.22;99318.22;5034241;28;20021;-61
2022/01/02 10:58:15;;;;;;;19.92;13.65;;;;;;;4.75;89.96;99316.13;5018836;28;20025;-60
2022/01/02 11:00:41;;;;;;;19.52;12.85;;;;;;;4.77;90.38;99316.03;5031368;28;20109;-59
2022/01/02 11:03:07;;;;;;;17.70;13.02;;;;;;;4.80;90.68;99321.81;5025309;28;20034;-60
2022/01/02 11:05:35;;;;;;;18.80;13.00;;;;;;;4.71;89.33;99296.59;5015533;28;20056;-60
2022/01/02 11:08:02;;;;;;;17.75;13.13;;;;;;;4.93;89.08;99315.97;5006857;28;20122;-61
2022/01/02 11:10:28;;;;;;;18.52;13.20;;;;;;;4.73;89.08;99284.47;5021215;28;20537;-60
2022/01/02 11:12:54;;;;;;;18.25;12.98;;;;;;;5.11;88.67;99343.19;5019772;28;20053;-60
2022/01/02 11:15:25;;;;;;;18.15;13.13;;;;;;;5.14;89.46;99322.38;5020264;28;20128;-61
2022/01/02 11:17:51;;;;;;;20.17;12.98;;;;;;;5.16;88.43;99317.94;5047979;28;20028;-60
2022/01/02 11:20:28;;;;;;;17.13;13.25;;;;;;;5.19;87.92;99324.69;5013847;28;20320;-62
2022/01/02 11:22:59;;;;;;;17.27;12.88;;;;;;;5.31;87.06;99317.94;5010284;28;20515;-60
2022/01/02 11:25:46;;;;;;;17.98;12.55;;;;;;;5.24;88.06;99317.50;5016939;28;20196;-60
2022/01/02 11:28:34;;;;;;;17.60;12.95;;;;;;;5.24;87.72;99317.50;5031862;28;21083;-60
2022/01/02 11:31:00;;;;;;;18.00;12.63;;;;;;;5.24;88.06;99302.03;5015693;28;20333;-60
2022/01/02 11:33:31;;;;;;;16.33;11.85;;;;;;;5.24;87.20;99277.97;5004935;28;20033;-60
2022/01/02 11:35:58;;;;;;;21.85;13.70;;;;;;;5.22;85.84;99256.63;5006742;28;20037;-61
2022/01/02 11:38:26;;;;;;;17.88;13.25;;;;;;;5.32;85.66;99239.66;5038920;28;20045;-60
2022/01/02 11:40:56;;;;;;;19.92;14.50;;;;;;;5.51;84.71;99255.66;5054281;28;20030;-61